createdAt,value
2019-04-06T00:01:24.180Z,68.78
2019-04-06T00:07:30.458Z,69.14
2019-04-06T00:13:36.635Z,69.37
2019-04-06T00:19:42.571Z,69.25
2019-04-06T00:25:48.906Z,69.07
2019-04-06T00:32:00.535Z,68.97
2019-04-06T00:38:06.297Z,69.04
2019-04-06T00:44:12.079Z,69.01
2019-04-06T00:50:18.107Z,68.81
2019-04-06T00:56:24.008Z,68.66
2019-04-06T01:02:30.285Z,68.97
2019-04-06T01:08:36.212Z,69.13
2019-04-06T01:14:42.068Z,69.03
2019-04-06T01:20:49.494Z,69.02
2019-04-06T01:26:55.325Z,69.12
2019-04-06T01:33:01.091Z,69.04
2019-04-06T01:39:08.127Z,68.94
2019-04-06T01:45:13.849Z,68.73
2019-04-06T01:51:19.865Z,68.79
2019-04-06T01:57:26.331Z,68.86
2019-04-06T02:03:32.097Z,69.03
2019-04-06T02:09:37.946Z,69.11
2019-04-06T02:15:44.376Z,69.35
2019-04-06T02:21:50.168Z,69.61
2019-04-06T02:27:56.025Z,69.75
2019-04-06T02:34:27.564Z,69.79
2019-04-06T02:40:41.196Z,69.76
2019-04-06T02:46:47.187Z,69.81
2019-04-06T02:52:52.894Z,69.64
2019-04-06T02:58:58.754Z,69.69
2019-04-06T03:05:04.767Z,69.95
2019-04-06T03:11:11.200Z,69.98
2019-04-06T03:17:17.265Z,69.95
2019-04-06T03:23:24.857Z,69.73
2019-04-06T03:29:31.131Z,70.03
2019-04-06T03:35:36.992Z,70.24
2019-04-06T03:41:42.973Z,70.09
2019-04-06T03:47:48.715Z,70.06
2019-04-06T03:53:54.469Z,70.06
2019-04-06T04:00:01.359Z,70.08
2019-04-06T04:06:07.381Z,70.21
2019-04-06T04:12:13.972Z,70.20
2019-04-06T04:18:21.697Z,70.28
2019-04-06T04:24:28.238Z,70.37
2019-04-06T04:30:35.549Z,70.36
2019-04-06T04:36:42.071Z,70.19
2019-04-06T04:42:47.887Z,70.08
2019-04-06T04:48:55.279Z,70.15
2019-04-06T04:55:01.005Z,70.16
2019-04-06T05:01:06.762Z,70.17
2019-04-06T05:07:12.797Z,70.29
2019-04-06T05:13:18.699Z,70.27
2019-04-06T05:19:24.532Z,70.42
2019-04-06T05:25:30.338Z,70.29
2019-04-06T05:31:36.265Z,70.34
2019-04-06T05:37:42.704Z,70.19
2019-04-06T05:43:48.750Z,70.06
2019-04-06T05:49:54.551Z,69.92
2019-04-06T05:56:00.277Z,69.62
2019-04-06T06:02:07.826Z,69.72
2019-04-06T06:08:13.743Z,69.85
2019-04-06T06:14:19.480Z,69.74
2019-04-06T06:20:25.248Z,69.53
2019-04-06T06:26:31.751Z,69.41
2019-04-06T06:32:38.383Z,69.47
2019-04-06T06:38:44.355Z,69.36
2019-04-06T06:44:50.562Z,69.28
2019-04-06T06:50:56.484Z,69.21
2019-04-06T06:57:02.405Z,69.08
2019-04-06T07:03:08.241Z,68.75
2019-04-06T07:09:14.009Z,68.42
2019-04-06T07:15:20.392Z,68.26
2019-04-06T07:21:31.694Z,68.04
2019-04-06T07:27:37.525Z,67.69
2019-04-06T07:33:43.600Z,67.30
2019-04-06T07:39:49.429Z,67.07
2019-04-06T07:45:55.230Z,66.58
2019-04-06T07:52:01.299Z,66.57
2019-04-06T07:58:07.446Z,66.02
2019-04-06T08:04:13.534Z,65.66
2019-04-06T08:10:19.507Z,65.08
2019-04-06T08:16:25.473Z,64.55
2019-04-06T08:22:31.448Z,64.33
2019-04-06T08:28:37.564Z,63.82
2019-04-06T08:34:43.499Z,63.62
2019-04-06T08:40:49.907Z,63.31
2019-04-06T08:46:55.827Z,62.43
2019-04-06T08:53:01.620Z,61.47
2019-04-06T08:59:12.335Z,60.78
2019-04-06T09:05:15.728Z,60.16
2019-04-06T09:11:21.527Z,59.77
2019-04-06T09:17:27.680Z,59.08
2019-04-06T09:23:33.515Z,58.37
2019-04-06T09:29:39.518Z,58.01
2019-04-06T09:35:45.534Z,57.87
2019-04-06T09:41:51.939Z,58.29
2019-04-06T09:48:07.480Z,57.70
2019-04-06T09:54:38.247Z,56.80
2019-04-06T10:00:54.367Z,56.09
2019-04-06T10:07:21.769Z,54.94
2019-04-06T10:13:36.929Z,54.86
2019-04-06T10:19:54.297Z,54.82
2019-04-06T10:26:09.688Z,54.99
2019-04-06T10:32:34.344Z,55.26
2019-04-06T10:39:01.758Z,55.48
2019-04-06T10:45:26.536Z,54.99
2019-04-06T10:51:51.141Z,54.83
2019-04-06T10:58:17.191Z,54.82
2019-04-06T11:04:40.770Z,54.34
2019-04-06T11:10:53.043Z,54.32
2019-04-06T11:23:54.035Z,53.73
2019-04-06T11:30:16.286Z,53.59
2019-04-06T11:36:39.957Z,53.50
2019-04-06T11:43:14.273Z,53.21
2019-04-06T11:49:58.193Z,53.12
2019-04-06T11:56:12.781Z,52.89
2019-04-06T12:02:38.111Z,51.94
2019-04-06T12:08:53.119Z,51.03
2019-04-06T12:15:12.045Z,50.52
2019-04-06T12:21:35.549Z,50.18
2019-04-06T12:27:58.804Z,50.24
2019-04-06T12:34:23.611Z,50.60
2019-04-06T12:40:43.534Z,50.01
2019-04-06T12:47:06.763Z,50.25
2019-04-06T12:53:27.191Z,49.51
2019-04-06T12:59:55.105Z,49.46
2019-04-06T13:06:24.219Z,49.13
2019-04-06T13:13:01.206Z,48.78
2019-04-06T13:19:41.296Z,48.39
2019-04-06T13:26:17.859Z,47.84
2019-04-06T13:32:42.835Z,47.30
2019-04-06T13:39:07.183Z,46.59
2019-04-06T13:45:34.924Z,46.15
2019-04-06T13:51:52.631Z,46.18
2019-04-06T13:58:04.293Z,46.21
2019-04-06T14:04:44.273Z,45.78
2019-04-06T14:11:10.931Z,45.97
2019-04-06T14:17:54.475Z,45.82
2019-04-06T14:24:17.624Z,45.86
2019-04-06T14:30:42.407Z,45.38
2019-04-06T14:37:03.980Z,44.67
2019-04-06T14:43:27.895Z,45.41
2019-04-06T14:49:52.582Z,45.69
2019-04-06T14:56:12.513Z,44.05
2019-04-06T15:02:35.355Z,43.88
2019-04-06T15:09:07.395Z,43.44
2019-04-06T15:15:27.636Z,42.80
2019-04-06T15:21:53.041Z,43.43
2019-04-06T15:28:29.999Z,43.21
2019-04-06T15:34:53.102Z,42.79
2019-04-06T15:41:14.224Z,42.85
2019-04-06T15:47:38.822Z,43.14
2019-04-06T15:53:51.542Z,42.63
2019-04-06T16:00:06.340Z,41.49
2019-04-06T16:06:21.143Z,40.68
2019-04-06T16:12:35.648Z,40.52
2019-04-06T16:18:59.065Z,40.79
2019-04-06T16:25:27.412Z,41.48
2019-04-06T16:31:43.810Z,42.45
2019-04-06T16:38:08.764Z,43.39
2019-04-06T16:44:35.034Z,43.09
2019-04-06T16:50:55.386Z,43.92
2019-04-06T16:57:18.069Z,43.67
2019-04-06T17:04:01.373Z,45.29
2019-04-06T17:10:24.680Z,45.88
2019-04-06T17:16:51.295Z,45.36
2019-04-06T17:23:25.188Z,46.88
2019-04-06T17:29:48.228Z,48.34
2019-04-06T17:36:06.361Z,49.69
2019-04-06T17:42:34.107Z,50.72
2019-04-06T17:49:05.920Z,51.24
2019-04-06T17:55:20.653Z,51.74
2019-04-06T18:01:44.466Z,52.12
2019-04-06T18:08:07.958Z,52.88
2019-04-06T18:14:13.869Z,53.51
2019-04-06T18:20:19.968Z,54.23
2019-04-06T18:26:25.746Z,54.69
2019-04-06T18:32:57.842Z,55.25
2019-04-06T18:39:01.028Z,55.44
2019-04-06T18:45:06.903Z,55.74
2019-04-06T18:51:12.721Z,56.36
2019-04-06T18:57:18.871Z,57.00
2019-04-06T19:03:25.292Z,57.54
2019-04-06T19:09:31.569Z,57.92
2019-04-06T19:15:37.739Z,58.49
2019-04-06T19:21:43.704Z,58.99
2019-04-06T19:27:49.736Z,59.52
2019-04-06T19:34:02.444Z,60.75
2019-04-06T19:40:11.635Z,61.35
2019-04-06T19:46:19.457Z,61.75
2019-04-06T19:52:25.618Z,61.91
2019-04-06T19:58:31.508Z,62.39
2019-04-06T20:04:37.653Z,62.54
2019-04-06T20:10:43.730Z,62.92
2019-04-06T20:16:51.210Z,63.39
2019-04-06T20:22:57.058Z,63.72
2019-04-06T20:29:02.904Z,63.90
2019-04-06T20:35:09.719Z,63.96
2019-04-06T20:41:15.709Z,64.27
2019-04-06T20:47:21.658Z,64.90
2019-04-06T20:53:27.677Z,65.45
2019-04-06T20:59:33.443Z,65.75
2019-04-06T21:05:40.503Z,66.02
2019-04-06T21:11:46.918Z,66.15
2019-04-06T21:17:53.419Z,65.87
2019-04-06T21:23:59.419Z,66.10
2019-04-06T21:30:06.205Z,66.33
2019-04-06T21:36:11.996Z,66.91
2019-04-06T21:42:18.216Z,67.15
2019-04-06T21:48:24.887Z,67.28
2019-04-06T21:54:30.883Z,67.06
2019-04-06T22:00:43.718Z,67.16
2019-04-06T22:06:50.615Z,67.23
2019-04-06T22:12:56.768Z,67.05
2019-04-06T22:19:03.228Z,67.02
2019-04-06T22:25:09.572Z,67.37
2019-04-06T22:31:15.592Z,67.68
2019-04-06T22:37:21.776Z,67.86
2019-04-06T22:43:27.593Z,67.68
2019-04-06T22:49:33.852Z,67.59
2019-04-06T22:55:40.252Z,67.53
2019-04-06T23:01:46.271Z,67.72
2019-04-06T23:07:53.374Z,68.09
2019-04-06T23:13:59.638Z,67.98
2019-04-06T23:20:05.757Z,67.61
2019-04-06T23:26:11.607Z,67.52
2019-04-06T23:32:18.139Z,67.76
2019-04-06T23:38:24.822Z,67.99
2019-04-06T23:44:30.956Z,67.89
2019-04-06T23:50:36.678Z,67.50
2019-04-06T23:56:43.966Z,67.48
